Time;durP1;ratioP1;P1;durP2;ratioP2;P2;SDS_P1;SDS_P2;PMS_P1;PMS_P2;Temp;Humidity;BMP_temperature;BMP_pressure;BME280_temperature;BME280_humidity;BME280_pressure;Samples;Min_cycle;Max_cycle;Signal;HPM_P1;HPM_P2
2022/03/05 00:02:09;;;;;;;11.35;5.57;;;-1.30;99.90;;;;;;5050015;28;20109;-41
2022/03/05 00:04:35;;;;;;;14.48;6.13;;;-1.30;99.90;;;;;;5085134;28;20048;-41
2022/03/05 00:07:01;;;;;;;10.55;5.43;;;-1.30;99.90;;;;;;5090005;28;20147;-41
2022/03/05 00:09:28;;;;;;;11.23;5.45;;;-1.30;99.90;;;;;;5085540;28;20183;-41
2022/03/05 00:11:53;;;;;;;12.50;6.00;;;-1.40;99.90;;;;;;5100619;28;20035;-41
2022/03/05 00:14:19;;;;;;;10.32;5.90;;;-1.40;99.90;;;;;;5100108;28;20577;-41
2022/03/05 00:16:45;;;;;;;9.10;5.72;;;-1.40;99.90;;;;;;5053414;28;20130;-41
2022/03/05 00:19:12;;;;;;;9.75;5.60;;;-1.40;99.90;;;;;;5070981;28;20066;-41
2022/03/05 00:21:38;;;;;;;9.43;5.38;;;-1.40;99.90;;;;;;5069958;28;20104;-41
2022/03/05 00:24:04;;;;;;;11.00;5.45;;;-1.30;99.90;;;;;;5101120;28;20442;-41
2022/03/05 00:26:30;;;;;;;16.15;5.82;;;-1.30;99.90;;;;;;5070877;28;20047;-41
2022/03/05 00:28:56;;;;;;;9.48;5.55;;;-1.30;99.90;;;;;;5088076;28;20040;-41
2022/03/05 00:31:22;;;;;;;9.45;5.55;;;-1.40;99.90;;;;;;5086490;28;20094;-41
2022/03/05 00:33:49;;;;;;;11.73;6.68;;;-1.50;99.90;;;;;;5086534;28;20043;-41
2022/03/05 00:36:15;;;;;;;9.57;5.78;;;-1.50;99.90;;;;;;5067132;28;20381;-41
2022/03/05 00:38:41;;;;;;;11.93;7.20;;;-1.50;99.90;;;;;;5090517;28;20111;-42
2022/03/05 00:41:08;;;;;;;11.02;5.63;;;-1.50;99.90;;;;;;5070007;28;20036;-41
2022/03/05 00:43:34;;;;;;;;;;;-1.50;99.90;;;;;;5104559;27;20071;-41
2022/03/05 00:46:00;;;;;;;10.52;5.85;;;-1.50;99.90;;;;;;5085210;28;19945;-41
2022/03/05 00:48:26;;;;;;;9.38;6.05;;;-1.50;99.90;;;;;;5032660;28;20052;-41
2022/03/05 00:50:52;;;;;;;11.95;6.70;;;-1.50;99.90;;;;;;5052168;28;20535;-41
2022/03/05 00:53:21;;;;;;;10.65;5.97;;;-1.40;99.90;;;;;;5050277;28;20439;-41
2022/03/05 00:55:47;;;;;;;10.80;6.72;;;-1.40;99.90;;;;;;5070085;28;20036;-41
2022/03/05 00:58:14;;;;;;;13.52;6.68;;;-1.50;99.90;;;;;;5067531;28;20454;-41
2022/03/05 01:00:41;;;;;;;12.65;6.78;;;-1.50;99.90;;;;;;5087683;28;20111;-41
2022/03/05 01:03:07;;;;;;;13.18;7.10;;;-1.50;99.90;;;;;;5069107;28;20043;-41
2022/03/05 01:05:33;;;;;;;11.35;7.22;;;-1.50;99.90;;;;;;5069675;28;20079;-41
2022/03/05 01:07:59;;;;;;;10.77;6.50;;;-1.50;99.90;;;;;;5083950;28;20098;-41
2022/03/05 01:10:25;;;;;;;13.98;7.70;;;-1.40;99.90;;;;;;5087228;28;20048;-41
2022/03/05 01:12:51;;;;;;;12.98;7.35;;;-1.40;99.90;;;;;;5101316;28;20044;-41
2022/03/05 01:15:17;;;;;;;12.60;7.28;;;-0.80;99.90;;;;;;5070113;28;20078;-41
2022/03/05 01:17:43;;;;;;;12.75;6.35;;;-1.50;99.90;;;;;;5085560;28;20071;-41
2022/03/05 01:20:09;;;;;;;15.40;8.77;;;-1.40;99.90;;;;;;5085255;28;20678;-41
2022/03/05 01:22:35;;;;;;;18.48;9.93;;;-1.50;99.90;;;;;;5067906;28;20033;-41
2022/03/05 01:25:03;;;;;;;24.80;13.45;;;-1.40;99.90;;;;;;5084897;28;20090;-41
2022/03/05 01:27:29;;;;;;;;;;;-1.30;99.90;;;;;;5070395;28;20097;-41
2022/03/05 01:29:54;;;;;;;27.65;15.20;;;-1.40;99.90;;;;;;5084686;28;20059;-42
2022/03/05 01:32:20;;;;;;;26.55;15.85;;;-1.50;99.90;;;;;;5052220;28;20048;-41
2022/03/05 01:34:47;;;;;;;21.20;13.30;;;-1.40;99.90;;;;;;5052369;28;20178;-41
2022/03/05 01:37:13;;;;;;;19.00;12.65;;;-1.40;99.90;;;;;;5077257;28;20681;-41
2022/03/05 01:39:41;;;;;;;17.67;11.25;;;-1.30;99.90;;;;;;5066184;28;20052;-41
2022/03/05 01:42:07;;;;;;;18.80;10.60;;;-1.40;99.90;;;;;;5085959;28;20040;-41
2022/03/05 01:44:33;;;;;;;14.23;8.38;;;-1.50;99.90;;;;;;5087547;28;20047;-41
2022/03/05 01:47:04;;;;;;;15.00;8.25;;;-1.40;99.90;;;;;;5066298;28;20052;-41
2022/03/05 01:49:30;;;;;;;14.60;7.88;;;-1.50;99.90;;;;;;5086230;28;20036;-41
2022/03/05 01:51:57;;;;;;;13.40;7.88;;;-1.50;99.90;;;;;;5100178;28;20051;-41
2022/03/05 01:54:25;;;;;;;14.93;7.30;;;-1.60;99.90;;;;;;5088876;28;20516;-41
2022/03/05 01:56:51;;;;;;;15.02;7.53;;;-1.60;99.90;;;;;;5082351;28;20047;-41
2022/03/05 01:59:17;;;;;;;13.35;7.50;;;-1.70;99.90;;;;;;5067266;28;20062;-41
2022/03/05 02:01:45;;;;;;;13.55;7.53;;;-1.80;99.90;;;;;;5086327;28;20051;-41
2022/03/05 02:04:10;;;;;;;14.70;7.88;;;-1.80;99.90;;;;;;5078305;28;20708;-41
2022/03/05 02:06:36;;;;;;;14.95;8.32;;;-1.80;99.90;;;;;;5065776;28;20086;-41
2022/03/05 02:09:03;;;;;;;13.55;7.78;;;-1.80;99.90;;;;;;5075535;28;20063;-41
2022/03/05 02:11:29;;;;;;;15.25;8.85;;;-1.80;99.90;;;;;;5084301;28;20504;-41
2022/03/05 02:13:55;;;;;;;19.15;11.23;;;-1.80;99.90;;;;;;5068907;28;20350;-41
2022/03/05 02:16:22;;;;;;;14.65;8.90;;;-1.70;99.90;;;;;;5096708;28;20121;-42
2022/03/05 02:18:50;;;;;;;14.27;8.70;;;-1.70;99.90;;;;;;5068195;28;20596;-41
2022/03/05 02:21:16;;;;;;;16.45;8.10;;;-1.70;99.90;;;;;;5082775;28;20477;-42
2022/03/05 02:23:42;;;;;;;13.45;7.75;;;-1.70;99.90;;;;;;5083808;28;20543;-41
2022/03/05 02:26:10;;;;;;;13.05;7.45;;;-1.70;99.90;;;;;;5087107;28;20075;-41
2022/03/05 02:28:37;;;;;;;12.60;7.25;;;-1.70;99.90;;;;;;5083638;28;20443;-41
2022/03/05 02:31:04;;;;;;;13.52;7.25;;;-1.70;99.90;;;;;;5066306;28;20049;-41
2022/03/05 02:33:30;;;;;;;12.68;7.10;;;-1.70;99.90;;;;;;5068140;28;20537;-41
2022/03/05 02:35:56;;;;;;;14.15;7.60;;;-1.70;99.90;;;;;;5087016;28;20119;-41
2022/03/05 02:38:23;;;;;;;15.45;7.28;;;-1.80;99.90;;;;;;5064589;28;20040;-41
2022/03/05 02:40:50;;;;;;;;;;;-1.80;99.90;;;;;;5071622;28;20681;-41
2022/03/05 02:43:17;;;;;;;14.80;6.97;;;-1.80;99.90;;;;;;5068508;28;19931;-41
2022/03/05 02:45:43;;;;;;;12.20;7.22;;;-1.90;99.90;;;;;;5097133;28;20174;-41
2022/03/05 02:48:14;;;;;;;13.18;7.28;;;-1.90;99.90;;;;;;5069494;28;20386;-41
2022/03/05 02:50:41;;;;;;;15.10;7.22;;;-1.90;99.90;;;;;;5088560;28;20123;-41
2022/03/05 02:53:07;;;;;;;12.80;6.88;;;-1.90;99.90;;;;;;5103660;28;20047;-41
2022/03/05 02:55:34;;;;;;;14.88;7.40;;;-1.90;99.90;;;;;;5089541;28;20071;-41
2022/03/05 02:58:00;;;;;;;13.90;7.03;;;-1.10;99.90;;;;;;5102264;28;20040;-41
2022/03/05 03:00:26;;;;;;;12.57;7.32;;;-1.90;99.90;;;;;;5060776;28;20062;-41
2022/03/05 03:02:52;;;;;;;12.20;6.95;;;-1.90;99.90;;;;;;5090462;28;20051;-41
2022/03/05 03:05:18;;;;;;;11.98;6.70;;;-2.00;99.90;;;;;;5072405;28;20048;-41
2022/03/05 03:07:44;;;;;;;14.55;7.20;;;-2.00;99.90;;;;;;5090504;28;20044;-41
2022/03/05 03:10:12;;;;;;;13.55;7.03;;;-2.00;99.90;;;;;;5091271;28;20035;-41
2022/03/05 03:12:39;;;;;;;12.70;6.43;;;-2.00;99.90;;;;;;5090261;28;20481;-41
2022/03/05 03:15:08;;;;;;;12.20;6.55;;;-2.00;99.90;;;;;;5086781;28;20404;-41
2022/03/05 03:17:45;;;;;;;11.43;6.35;;;-2.00;99.90;;;;;;5089587;28;20040;-42
2022/03/05 03:20:12;;;;;;;10.30;6.05;;;-2.00;99.90;;;;;;5088550;28;20124;-41
2022/03/05 03:22:38;;;;;;;;;;;-2.00;99.90;;;;;;5038088;28;20051;-41
2022/03/05 03:25:05;;;;;;;10.57;6.20;;;-2.00;99.90;;;;;;5103087;28;19916;-41
2022/03/05 03:27:31;;;;;;;11.23;6.43;;;-1.90;99.90;;;;;;5068885;28;20059;-40
2022/03/05 03:29:56;;;;;;;12.43;6.53;;;-1.90;99.90;;;;;;5072531;28;20052;-40
2022/03/05 03:32:22;;;;;;;11.70;6.35;;;-1.90;99.90;;;;;;5054159;28;20039;-41
2022/03/05 03:34:51;;;;;;;11.88;5.95;;;-1.90;99.90;;;;;;5072933;28;20047;-41
2022/03/05 03:37:17;;;;;;;11.30;6.60;;;-2.00;99.90;;;;;;5069657;28;20115;-41
2022/03/05 03:39:43;;;;;;;10.98;6.22;;;-1.90;99.90;;;;;;5104014;28;20047;-41
2022/03/05 03:42:09;;;;;;;11.80;6.55;;;-1.90;99.90;;;;;;5068167;28;20039;-41
2022/03/05 03:44:35;;;;;;;11.93;6.15;;;-1.90;99.90;;;;;;5089750;28;20130;-41
2022/03/05 03:47:02;;;;;;;11.30;5.47;;;-1.90;99.90;;;;;;5084195;28;20100;-41
2022/03/05 03:49:28;;;;;;;10.70;6.22;;;-1.90;99.90;;;;;;5071910;28;20045;-41
2022/03/05 03:51:54;;;;;;;11.57;5.93;;;-1.90;99.90;;;;;;5067271;28;20050;-41
2022/03/05 03:54:21;;;;;;;9.15;5.70;;;-1.90;99.90;;;;;;5053649;28;20052;-40
2022/03/05 03:56:47;;;;;;;12.40;5.57;;;-1.90;99.90;;;;;;5100323;28;20040;-41
2022/03/05 03:59:13;;;;;;;12.05;6.57;;;-1.90;99.90;;;;;;5069901;28;20036;-41
2022/03/05 04:01:38;;;;;;;11.30;6.13;;;-1.90;99.90;;;;;;5102125;28;20539;-41
2022/03/05 04:04:04;;;;;;;13.57;6.30;;;-1.90;99.90;;;;;;5086067;28;20093;-41
2022/03/05 04:08:41;;;;;;;14.10;6.28;;;-1.90;99.90;;;;;;5098730;28;20060;-41
2022/03/05 04:09:16;;;;;;;13.98;6.28;;;-2.00;99.90;;;;;;5067027;28;20164;-41
2022/03/05 04:11:43;;;;;;;11.68;5.78;;;-2.00;99.90;;;;;;5067947;28;20064;-41
2022/03/05 04:14:28;;;;;;;9.85;5.43;;;-2.00;99.90;;;;;;5065901;28;20374;-41
2022/03/05 04:16:55;;;;;;;10.30;5.45;;;-2.00;99.90;;;;;;5057742;28;20041;-41
2022/03/05 04:19:21;;;;;;;12.60;5.93;;;-2.00;99.90;;;;;;5060256;28;20526;-41
2022/03/05 04:21:47;;;;;;;9.57;5.82;;;-2.00;99.90;;;;;;5082820;28;20036;-41
2022/03/05 04:24:13;;;;;;;10.55;5.80;;;-2.00;99.90;;;;;;5050147;28;20056;-41
2022/03/05 04:26:40;;;;;;;10.52;5.68;;;-2.10;99.90;;;;;;5062848;28;20041;-41
2022/03/05 04:29:06;;;;;;;11.77;5.80;;;-2.10;99.90;;;;;;5066941;28;20036;-41
2022/03/05 04:31:32;;;;;;;11.88;5.47;;;-2.10;99.90;;;;;;5049977;28;20048;-41
2022/03/05 04:33:58;;;;;;;9.63;5.20;;;-2.10;99.90;;;;;;5049924;28;20060;-41
2022/03/05 04:36:24;;;;;;;10.95;5.80;;;-2.10;99.90;;;;;;5063416;28;20044;-41
2022/03/05 04:38:50;;;;;;;10.85;5.43;;;-2.10;99.90;;;;;;5077428;28;20387;-41
2022/03/05 04:41:17;;;;;;;11.38;5.78;;;-2.10;99.90;;;;;;5049674;28;20531;-40
2022/03/05 04:43:46;;;;;;;9.77;5.30;;;-2.10;99.90;;;;;;5068458;28;20114;-41
2022/03/05 04:46:12;;;;;;;11.20;6.20;;;-2.10;99.90;;;;;;5064332;28;20052;-41
2022/03/05 04:48:39;;;;;;;9.00;5.20;;;-2.10;99.90;;;;;;5063076;28;20102;-41
2022/03/05 04:51:05;;;;;;;12.00;6.88;;;-2.10;99.90;;;;;;5048451;28;20047;-42
2022/03/05 04:53:31;;;;;;;11.27;6.20;;;-2.10;99.90;;;;;;5032971;28;20044;-41
2022/03/05 04:55:57;;;;;;;12.85;6.72;;;-2.10;99.90;;;;;;5039414;28;20044;-41
2022/03/05 04:58:23;;;;;;;18.30;11.63;;;-2.10;99.90;;;;;;5064836;28;20194;-41
2022/03/05 05:00:49;;;;;;;11.98;6.70;;;-2.10;99.90;;;;;;5042272;28;20628;-41
2022/03/05 05:03:15;;;;;;;14.07;6.15;;;-2.00;99.90;;;;;;5079954;28;20536;-41
2022/03/05 05:05:41;;;;;;;12.20;6.28;;;-2.00;99.90;;;;;;5083485;28;20067;-41
2022/03/05 05:08:07;;;;;;;10.93;6.10;;;-2.10;99.90;;;;;;5066858;28;20040;-41
2022/03/05 05:10:34;;;;;;;13.00;6.18;;;-2.10;99.90;;;;;;5095367;28;20118;-41
2022/03/05 05:13:00;;;;;;;9.77;5.28;;;-2.10;99.90;;;;;;5086027;28;20044;-41
2022/03/05 05:15:27;;;;;;;11.73;5.65;;;-2.10;99.90;;;;;;5103978;28;20044;-41
2022/03/05 05:17:52;;;;;;;9.30;5.63;;;-2.20;99.90;;;;;;5087029;28;20058;-41
2022/03/05 05:20:18;;;;;;;12.35;5.75;;;-2.20;99.90;;;;;;5103359;28;20032;-41
2022/03/05 05:22:44;;;;;;;10.18;5.93;;;-2.20;99.90;;;;;;5088093;28;20034;-41
2022/03/05 05:25:10;;;;;;;10.05;5.47;;;-2.20;99.90;;;;;;5068688;28;20374;-41
2022/03/05 05:27:39;;;;;;;10.55;5.75;;;-2.20;99.90;;;;;;5101145;28;20031;-41
2022/03/05 05:30:07;;;;;;;10.18;5.50;;;-2.20;99.90;;;;;;5069325;28;20788;-40
2022/03/05 05:32:33;;;;;;;10.07;5.70;;;-2.20;99.90;;;;;;5070243;28;20414;-41
2022/03/05 05:34:59;;;;;;;10.02;5.72;;;-2.20;99.90;;;;;;5065757;28;20044;-41
2022/03/05 05:37:25;;;;;;;12.68;7.30;;;-2.20;99.90;;;;;;5034412;28;20047;-41
2022/03/05 05:39:55;;;;;;;17.80;10.60;;;-2.20;99.90;;;;;;5085369;28;20495;-41
2022/03/05 05:42:21;;;;;;;18.52;11.95;;;-2.20;99.90;;;;;;5068496;28;20079;-41
2022/03/05 05:44:47;;;;;;;13.55;7.40;;;-2.20;99.90;;;;;;5086665;28;20123;-41
2022/03/05 05:47:13;;;;;;;13.63;8.63;;;-2.20;99.90;;;;;;5096639;28;20471;-41
2022/03/05 05:49:39;;;;;;;16.48;10.75;;;-2.20;99.90;;;;;;5084689;28;20070;-41
2022/03/05 05:52:05;;;;;;;17.40;9.85;;;-2.20;99.90;;;;;;5088183;28;20402;-41
2022/03/05 05:54:33;;;;;;;25.17;16.33;;;-2.20;99.90;;;;;;5067262;28;20485;-41
2022/03/05 05:56:59;;;;;;;26.77;18.52;;;-2.10;99.90;;;;;;5102330;28;20051;-41
2022/03/05 05:59:28;;;;;;;23.67;15.18;;;-2.20;99.90;;;;;;5080509;28;20631;-41
2022/03/05 06:01:54;;;;;;;21.95;15.02;;;-2.10;99.90;;;;;;5074522;28;21376;-41
2022/03/05 06:04:20;;;;;;;24.80;13.43;;;-2.10;99.90;;;;;;5083225;28;20063;-41
2022/03/05 06:06:46;;;;;;;20.15;12.55;;;-2.10;99.90;;;;;;5099696;28;20606;-41
2022/03/05 06:09:12;;;;;;;15.65;10.32;;;-2.10;99.90;;;;;;5087627;28;20242;-41
2022/03/05 06:11:38;;;;;;;18.42;12.13;;;-2.10;99.90;;;;;;5057821;28;20039;-41
2022/03/05 06:14:06;;;;;;;16.13;10.40;;;-2.00;99.90;;;;;;5050598;28;20108;-41
2022/03/05 06:16:32;;;;;;;17.92;12.00;;;-2.00;99.90;;;;;;5070696;28;20047;-41
2022/03/05 06:18:58;;;;;;;18.48;11.88;;;-2.00;99.90;;;;;;5091972;28;20043;-41
2022/03/05 06:21:24;;;;;;;20.08;13.35;;;-2.00;99.90;;;;;;5083338;28;20032;-41
2022/03/05 06:23:50;;;;;;;24.92;14.43;;;-2.00;99.90;;;;;;5074522;28;20040;-41
2022/03/05 06:26:16;;;;;;;23.15;15.85;;;-2.00;99.90;;;;;;5105572;27;20432;-41
2022/03/05 06:28:42;;;;;;;25.70;16.35;;;-1.90;99.90;;;;;;5074491;28;20072;-41
2022/03/05 06:31:08;;;;;;;23.45;16.00;;;-1.90;99.90;;;;;;5068013;28;20036;-41
2022/03/05 06:33:34;;;;;;;20.52;14.13;;;-1.90;99.90;;;;;;5088562;28;20032;-41
2022/03/05 06:36:00;;;;;;;20.42;13.13;;;-1.80;99.90;;;;;;5091353;28;20032;-41
2022/03/05 06:38:26;;;;;;;22.08;15.05;;;-1.80;99.90;;;;;;5053556;28;20123;-41
2022/03/05 06:40:53;;;;;;;21.83;13.98;;;-1.80;99.90;;;;;;5085487;28;20072;-41
2022/03/05 06:43:19;;;;;;;18.52;12.45;;;-1.70;99.90;;;;;;5083810;28;20040;-41
2022/03/05 06:45:46;;;;;;;17.83;10.13;;;-1.70;99.90;;;;;;5073480;28;20485;-41
2022/03/05 06:48:14;;;;;;;22.00;11.17;;;-1.60;99.90;;;;;;5088423;28;20039;-41
2022/03/05 06:50:40;;;;;;;18.90;11.98;;;-1.60;99.90;;;;;;5071634;28;20039;-43
2022/03/05 06:53:06;;;;;;;17.60;12.30;;;-1.60;99.90;;;;;;5066524;28;20048;-41
2022/03/05 06:55:32;;;;;;;18.92;13.20;;;-1.50;99.90;;;;;;5072361;28;20044;-41
2022/03/05 06:57:58;;;;;;;18.17;12.57;;;-1.50;99.90;;;;;;5068098;28;20048;-41
2022/03/05 07:00:25;;;;;;;22.63;12.35;;;-1.50;99.90;;;;;;5070586;28;20113;-41
2022/03/05 07:02:51;;;;;;;18.25;11.00;;;-1.40;99.90;;;;;;5070037;28;20043;-42
2022/03/05 07:05:17;;;;;;;14.32;10.35;;;-1.10;99.90;;;;;;5090430;28;20505;-41
2022/03/05 07:07:44;;;;;;;14.75;10.20;;;-0.70;99.90;;;;;;5101628;28;20139;-42
2022/03/05 07:10:10;;;;;;;17.73;10.90;;;-0.30;99.90;;;;;;5071771;28;21002;-42
2022/03/05 07:12:55;;;;;;;20.48;11.45;;;0.00;99.90;;;;;;5050064;28;20531;-42
2022/03/05 07:15:21;;;;;;;15.35;9.23;;;0.40;99.90;;;;;;5103463;28;20363;-41
2022/03/05 07:17:49;;;;;;;12.15;8.50;;;0.30;99.90;;;;;;5053821;28;20054;-43
2022/03/05 07:20:15;;;;;;;15.10;9.02;;;0.40;99.90;;;;;;5089421;28;20043;-42
2022/03/05 07:22:42;;;;;;;18.02;9.70;;;0.40;99.90;;;;;;5071752;28;20036;-42
2022/03/05 07:25:10;;;;;;;13.82;9.05;;;0.40;99.90;;;;;;5071181;28;20051;-42
2022/03/05 07:27:37;;;;;;;13.98;9.38;;;0.50;99.90;;;;;;5088849;28;20036;-42
2022/03/05 07:30:04;;;;;;;12.18;7.05;;;0.70;99.90;;;;;;5070565;28;20164;-42
2022/03/05 07:32:30;;;;;;;11.90;6.10;;;1.00;99.90;;;;;;5088748;28;20513;-43
2022/03/05 07:34:56;;;;;;;13.18;6.68;;;1.20;99.90;;;;;;5071709;28;20071;-42
2022/03/05 07:37:22;;;;;;;12.10;7.10;;;1.50;99.90;;;;;;5069881;28;20096;-43
2022/03/05 07:39:48;;;;;;;12.30;6.93;;;1.60;99.90;;;;;;5085728;28;20036;-42
2022/03/05 07:42:14;;;;;;;10.18;6.45;;;1.90;99.90;;;;;;5105174;28;20079;-42
2022/03/05 07:44:40;;;;;;;9.95;6.22;;;2.20;99.90;;;;;;5051348;28;20043;-43
2022/03/05 07:47:06;;;;;;;12.27;6.40;;;2.60;99.90;;;;;;5071002;28;20465;-43
2022/03/05 07:49:32;;;;;;;11.05;6.40;;;2.90;99.90;;;;;;5070645;28;20044;-43
2022/03/05 07:51:58;;;;;;;9.63;5.55;;;3.30;99.90;;;;;;5069514;28;20037;-43
2022/03/05 07:54:24;;;;;;;11.93;6.68;;;3.50;99.90;;;;;;5103651;28;20108;-43
2022/03/05 07:56:50;;;;;;;9.90;7.05;;;3.80;99.90;;;;;;5089071;28;20101;-43
2022/03/05 07:59:16;;;;;;;13.07;7.20;;;4.10;99.90;;;;;;5081204;28;20126;-43
2022/03/05 08:01:42;;;;;;;11.02;8.07;;;4.20;99.90;;;;;;5086474;28;20059;-44
2022/03/05 08:04:08;;;;;;;11.10;7.13;;;4.60;99.90;;;;;;5088812;28;20043;-44
2022/03/05 08:06:34;;;;;;;11.45;6.93;;;4.80;99.90;;;;;;5066220;28;20422;-43
2022/03/05 08:09:00;;;;;;;11.20;6.95;;;4.90;99.90;;;;;;5067273;28;20037;-44
2022/03/05 08:11:27;;;;;;;11.52;7.13;;;5.20;99.90;;;;;;5049948;28;20044;-45
2022/03/05 08:13:52;;;;;;;11.53;6.93;;;5.70;99.90;;;;;;5066446;28;20041;-44
2022/03/05 08:16:18;;;;;;;12.65;7.60;;;5.90;99.90;;;;;;5064758;28;20490;-43
2022/03/05 08:18:44;;;;;;;12.50;6.40;;;5.90;99.90;;;;;;5048796;28;20039;-45
2022/03/05 08:21:11;;;;;;;11.27;6.75;;;5.90;99.90;;;;;;5059984;28;20037;-44
2022/03/05 08:23:37;;;;;;;11.80;7.15;;;6.00;99.90;;;;;;5066078;28;20062;-44
2022/03/05 08:26:05;;;;;;;12.00;7.05;;;5.90;99.90;;;;;;5069821;28;20156;-44
2022/03/05 08:28:31;;;;;;;12.07;7.35;;;5.80;99.90;;;;;;5066461;28;20154;-44
2022/03/05 08:30:57;;;;;;;11.95;6.60;;;5.70;99.90;;;;;;5076711;28;20044;-44
2022/03/05 08:33:23;;;;;;;11.98;7.43;;;5.50;99.90;;;;;;5066565;28;20044;-44
2022/03/05 08:35:49;;;;;;;15.07;7.57;;;5.10;99.90;;;;;;5082452;28;20046;-44
2022/03/05 08:38:15;;;;;;;15.73;6.75;;;4.70;99.90;;;;;;5067064;28;20638;-45
2022/03/05 08:40:42;;;;;;;13.95;7.38;;;4.10;99.90;;;;;;5063309;28;20044;-45
2022/03/05 08:43:07;;;;;;;11.98;7.45;;;3.70;99.90;;;;;;5050586;28;20040;-46
2022/03/05 08:45:33;;;;;;;14.77;7.80;;;3.50;99.90;;;;;;5066653;28;20316;-45
2022/03/05 08:47:59;;;;;;;11.68;6.75;;;3.30;99.90;;;;;;5050498;28;20047;-45
2022/03/05 08:50:25;;;;;;;13.55;6.78;;;3.20;99.90;;;;;;5076160;28;20449;-45
2022/03/05 08:52:52;;;;;;;12.25;7.05;;;3.20;99.90;;;;;;5044480;28;20040;-44
2022/03/05 08:55:18;;;;;;;12.43;6.78;;;3.20;99.90;;;;;;5065287;28;20135;-45
2022/03/05 08:57:44;;;;;;;10.57;6.47;;;3.20;99.90;;;;;;5064104;28;20036;-44
2022/03/05 09:00:12;;;;;;;12.30;7.33;;;3.20;99.90;;;;;;5067949;28;20051;-45
2022/03/05 09:02:38;;;;;;;11.63;5.97;;;3.30;99.90;;;;;;5078942;28;20784;-45
2022/03/05 09:05:07;;;;;;;11.32;6.75;;;3.30;99.90;;;;;;5026031;28;20159;-45
2022/03/05 09:07:33;;;;;;;12.55;6.82;;;3.30;99.90;;;;;;5066437;28;20083;-46
2022/03/05 09:10:03;;;;;;;13.00;7.22;;;3.30;99.90;;;;;;5078952;28;20589;-44
2022/03/05 09:12:29;;;;;;;9.32;6.30;;;3.40;99.90;;;;;;5068083;28;20059;-43
2022/03/05 09:14:55;;;;;;;12.45;6.97;;;3.40;99.90;;;;;;5034400;28;20029;-45
2022/03/05 09:17:20;;;;;;;11.68;6.53;;;3.50;99.90;;;;;;5047250;28;20045;-45
2022/03/05 09:19:46;;;;;;;10.30;6.68;;;3.60;99.90;;;;;;5043986;28;20041;-45
2022/03/05 09:22:12;;;;;;;12.25;7.35;;;3.60;99.90;;;;;;5038468;28;20036;-44
2022/03/05 09:24:39;;;;;;;11.77;7.47;;;3.70;99.90;;;;;;5026375;28;20454;-45
2022/03/05 09:27:05;;;;;;;11.20;6.45;;;3.80;99.90;;;;;;5044798;28;20071;-44
2022/03/05 09:29:31;;;;;;;13.15;7.15;;;3.90;99.90;;;;;;5028467;28;20151;-45
2022/03/05 09:31:57;;;;;;;11.68;7.60;;;4.00;99.90;;;;;;5047470;28;20048;-45
2022/03/05 09:34:24;;;;;;;16.02;7.18;;;4.00;99.90;;;;;;5060264;28;20048;-47
2022/03/05 09:36:50;;;;;;;11.98;6.88;;;4.10;99.90;;;;;;5079963;28;20052;-45
2022/03/05 09:39:16;;;;;;;13.50;7.50;;;4.20;99.90;;;;;;5066315;28;20047;-44
2022/03/05 09:41:42;;;;;;;13.88;8.20;;;4.20;99.90;;;;;;5048411;28;20040;-43
2022/03/05 09:44:08;;;;;;;13.20;7.05;;;4.30;99.90;;;;;;5079507;28;20032;-44
2022/03/05 09:46:35;;;;;;;12.98;7.57;;;4.40;99.90;;;;;;5046233;28;20600;-44
2022/03/05 09:49:03;;;;;;;13.00;7.30;;;4.40;99.90;;;;;;5049650;28;20051;-44
2022/03/05 09:51:31;;;;;;;12.75;7.45;;;4.40;99.90;;;;;;5017520;28;20044;-44
2022/03/05 09:53:57;;;;;;;12.63;7.15;;;4.50;99.90;;;;;;5032539;28;20056;-44
2022/03/05 09:56:23;;;;;;;14.73;7.43;;;4.50;99.90;;;;;;5077529;28;20037;-44
2022/03/05 09:58:51;;;;;;;13.57;7.63;;;4.50;99.90;;;;;;5065939;28;20407;-45
2022/03/05 10:01:18;;;;;;;11.95;6.53;;;4.50;99.90;;;;;;5051342;28;20048;-43
2022/03/05 10:03:50;;;;;;;12.93;6.72;;;4.50;99.90;;;;;;5061862;28;20044;-44
2022/03/05 10:06:18;;;;;;;14.35;7.70;;;4.50;99.90;;;;;;5046044;28;20061;-44
2022/03/05 10:08:46;;;;;;;15.77;7.65;;;4.60;99.90;;;;;;5065603;28;20059;-45
2022/03/05 10:11:12;;;;;;;14.27;7.00;;;4.70;99.90;;;;;;5067696;28;20044;-46
2022/03/05 10:13:40;;;;;;;14.30;7.23;;;4.70;99.90;;;;;;5046171;28;20029;-45
2022/03/05 10:16:22;;;;;;;12.77;7.30;;;4.70;99.90;;;;;;5048656;28;20196;-44
2022/03/05 10:18:48;;;;;;;14.43;7.78;;;4.70;99.90;;;;;;5058867;28;20070;-45
2022/03/05 10:21:16;;;;;;;12.45;7.75;;;4.80;99.90;;;;;;5048266;28;20122;-45
2022/03/05 10:23:47;;;;;;;13.32;7.80;;;4.90;99.90;;;;;;5080093;28;20099;-44
2022/03/05 10:26:22;;;;;;;12.35;7.60;;;4.90;99.90;;;;;;5048689;28;20044;-45
2022/03/05 10:28:48;;;;;;;14.00;7.30;;;5.00;99.90;;;;;;5030549;28;20040;-44
2022/03/05 10:31:13;;;;;;;13.02;7.15;;;5.00;99.90;;;;;;5065933;28;20048;-45
2022/03/05 10:33:42;;;;;;;15.82;7.65;;;5.00;99.90;;;;;;5047996;28;20051;-46
2022/03/05 10:36:09;;;;;;;14.32;7.97;;;5.00;99.90;;;;;;5066162;28;20075;-44
2022/03/05 10:38:58;;;;;;;15.23;7.60;;;5.10;99.90;;;;;;5049368;28;20463;-45
2022/03/05 10:41:38;;;;;;;14.10;7.95;;;5.10;99.90;;;;;;5044560;28;20047;-44
2022/03/05 10:44:10;;;;;;;12.98;7.65;;;5.20;99.90;;;;;;5076587;28;20052;-45
2022/03/05 10:46:43;;;;;;;12.10;7.43;;;5.30;99.90;;;;;;5048063;28;20040;-45
2022/03/05 10:49:17;;;;;;;12.50;7.18;;;5.30;99.90;;;;;;5046525;28;20055;-46
2022/03/05 10:52:04;;;;;;;16.48;7.93;;;5.40;99.90;;;;;;5078135;28;20044;-43
2022/03/05 10:54:39;;;;;;;12.13;6.60;;;5.40;99.90;;;;;;5065723;28;20489;-46
2022/03/05 10:57:22;;;;;;;12.98;7.30;;;5.40;99.90;;;;;;5065634;28;20091;-45
2022/03/05 10:59:51;;;;;;;15.55;8.00;;;5.40;99.90;;;;;;5065005;28;20032;-46
2022/03/05 11:02:18;;;;;;;15.32;7.85;;;5.60;99.90;;;;;;5033751;28;20040;-46
2022/03/05 11:04:44;;;;;;;;;;;5.60;99.90;;;;;;5071095;28;20107;-45
2022/03/05 11:07:14;;;;;;;14.65;7.70;;;5.70;99.90;;;;;;5067718;28;20091;-45
2022/03/05 11:09:44;;;;;;;13.85;7.78;;;5.80;99.90;;;;;;5070439;28;20083;-45
2022/03/05 11:12:15;;;;;;;15.63;8.40;;;5.80;99.90;;;;;;5035988;28;20455;-47
2022/03/05 11:14:46;;;;;;;15.95;8.00;;;5.90;99.90;;;;;;5049835;28;20462;-46
2022/03/05 11:17:13;;;;;;;12.57;7.72;;;5.90;99.90;;;;;;5049670;28;20044;-46
2022/03/05 11:19:40;;;;;;;;;;;6.00;99.90;;;;;;5052774;28;20044;-46
2022/03/05 11:22:08;;;;;;;14.07;8.27;;;6.10;99.90;;;;;;5051798;28;19987;-45
2022/03/05 11:24:34;;;;;;;;;;;6.10;99.90;;;;;;5051203;28;20048;-46
2022/03/05 11:27:00;;;;;;;13.10;7.82;;;6.10;99.90;;;;;;5066344;28;19920;-45
2022/03/05 11:29:28;;;;;;;14.07;8.00;;;6.20;99.90;;;;;;5066889;28;20051;-46
2022/03/05 11:32:12;;;;;;;13.98;8.43;;;6.20;99.90;;;;;;5068347;28;20619;-45
2022/03/05 11:34:46;;;;;;;17.13;8.00;;;6.30;99.90;;;;;;5064811;28;20547;-47
2022/03/05 11:37:38;;;;;;;15.93;8.40;;;6.40;99.90;;;;;;5068221;28;20052;-46
2022/03/05 11:40:07;;;;;;;14.70;8.88;;;6.40;99.90;;;;;;5063213;28;20098;-45
2022/03/05 11:42:34;;;;;;;15.23;8.45;;;6.40;99.90;;;;;;5066976;28;20036;-46
2022/03/05 11:45:20;;;;;;;12.68;8.38;;;6.40;99.90;;;;;;5065737;28;20064;-45
2022/03/05 11:47:46;;;;;;;14.68;7.63;;;6.30;99.90;;;;;;5068662;28;20036;-46
2022/03/05 11:50:16;;;;;;;15.70;8.55;;;6.40;99.90;;;;;;5066710;28;20032;-46
2022/03/05 11:52:42;;;;;;;15.52;8.43;;;6.50;99.90;;;;;;5059204;28;20394;-46
2022/03/05 11:55:11;;;;;;;16.15;8.57;;;6.50;99.90;;;;;;5061320;28;20132;-45
2022/03/05 11:57:38;;;;;;;14.40;8.20;;;6.60;99.90;;;;;;5048667;28;20683;-48
2022/03/05 12:00:05;;;;;;;14.40;7.97;;;6.60;99.90;;;;;;5051253;28;20439;-48
2022/03/05 12:02:50;;;;;;;14.02;8.90;;;6.70;99.90;;;;;;5067695;28;20532;-46
2022/03/05 12:05:41;;;;;;;13.70;8.73;;;6.80;99.90;;;;;;5049926;28;20121;-46
2022/03/05 12:08:07;;;;;;;14.13;8.55;;;6.80;99.90;;;;;;5046702;28;20040;-46
2022/03/05 12:10:38;;;;;;;12.20;7.43;;;6.80;99.90;;;;;;5046589;28;20196;-47
2022/03/05 12:13:08;;;;;;;16.67;8.77;;;6.90;99.90;;;;;;5046191;28;20041;-46
2022/03/05 12:15:33;;;;;;;13.23;8.23;;;7.00;99.90;;;;;;5027478;28;20045;-46
2022/03/05 12:18:04;;;;;;;12.95;7.90;;;7.00;99.90;;;;;;5041503;28;20075;-49
2022/03/05 12:20:34;;;;;;;13.48;7.75;;;7.20;99.90;;;;;;5046872;28;20095;-50
2022/03/05 12:23:02;;;;;;;14.07;8.27;;;7.30;99.90;;;;;;5046619;28;20395;-47
2022/03/05 12:25:30;;;;;;;14.27;8.82;;;7.30;99.90;;;;;;5062445;28;20147;-48
2022/03/05 12:27:57;;;;;;;13.35;7.85;;;7.30;99.90;;;;;;5048407;28;20044;-50
2022/03/05 12:30:32;;;;;;;14.77;9.23;;;7.30;99.90;;;;;;5028145;28;20429;-46
2022/03/05 12:33:12;;;;;;;17.92;9.05;;;7.30;99.90;;;;;;5044426;28;20056;-47
2022/03/05 12:35:40;;;;;;;16.75;8.85;;;7.30;99.90;;;;;;5043518;28;20218;-50
2022/03/05 12:38:08;;;;;;;15.05;8.73;;;7.40;99.90;;;;;;5044598;28;20071;-47
2022/03/05 12:40:35;;;;;;;14.55;8.65;;;7.40;99.90;;;;;;5076038;28;20081;-47
2022/03/05 12:43:04;;;;;;;18.13;11.63;;;7.40;99.90;;;;;;5046609;28;20505;-46
2022/03/05 12:45:39;;;;;;;17.00;9.73;;;7.40;99.90;;;;;;5025825;28;20040;-47